METAR AND TAF INFORMATION
METAR FOR KFHR
ADDS - METARS form results

(0816 UTC 28 October 2021)
Data provider http://aviationweather.gov/metar/data/
 
METAR text: KFHR 280753Z AUTO 11007KT 10SM -RA OVC009 09/08 A3016 RMK AO2 CIG 007V014 SLP212 P0000 T00940078 401220083 TSNO $
Conditions at: KFHR (FRIDAY HARBOR , WA, US) observed 0753 UTC 28 October 2021
Temperature: 9.4°C (49°F)
Dewpoint: 7.8°C (46°F) [RH = 90%]
Pressure (altimeter): 30.16 inches Hg (1021.4 mb)
[Sea-level pressure: 1021.2 mb]
Winds: from the ESE (110 degrees) at 8 MPH (7 knots; 3.6 m/s)
Visibility: 10 or more miles (16+ km)
Ceiling: 900 feet AGL
Clouds: overcast cloud deck at 900 feet AGL
Weather: -RA  (light rain)
SOME DATA ABOVE MAY BE INACCURATE!!!
"$" is an indication the sensor requires maintenance

METAR text: KFHR 280733Z AUTO 11009KT 10SM -RA BKN011 OVC018 09/08 A3017 RMK AO2 P0000 T00940078 TSNO $
Conditions at: KFHR (FRIDAY HARBOR , WA, US) observed 0733 UTC 28 October 2021
Temperature: 9.4°C (49°F)
Dewpoint: 7.8°C (46°F) [RH = 90%]
Pressure (altimeter): 30.17 inches Hg (1021.8 mb)
Winds: from the ESE (110 degrees) at 10 MPH (9 knots; 4.6 m/s)
Visibility: 10 or more miles (16+ km)
Ceiling: 1100 feet AGL
Clouds: broken clouds at 1100 feet AGL
overcast cloud deck at 1800 feet AGL
Weather: -RA  (light rain)
SOME DATA ABOVE MAY BE INACCURATE!!!
"$" is an indication the sensor requires maintenance

 AIRPORT MAP

 RUNWAY INFORMATION
Runway 16 Runway length 3402 ft Runway width 75 ft
Runway elevation 113 ft Runway displaced threshold 0 ft Runway heading 177
Runway 34 Runway length 3402 ft Runway width 75 ft
Runway elevation 84 ft Runway displaced threshold 0 ft Runway heading 357

 AIRPORT FREQUENCIES
Type A/D Name WHIDBEY AP Frequency 118.2 MHZ
Type ASOS Name ASOS Frequency 135.675 MHZ
Type CTAF Name CTAF Frequency 128.25 MHZ

 AIRPORT NEAR NAVIGATION AIDS

-